AAL1685 KSAN-KOAK
Flight info
| Callsign | AAL1685 |
|---|---|
| Flight time | N/A |
| Altitude | 34000 |
| Route | PADRZ2 OROSZ COREZ RGOOD EMZOH4 |
| Aircraft | B738/M-SDE2E3FGHIRWXY/LB1 |
Departure
| Time | 2026-04-21 03:46 |
|---|---|
| Airport | San Diego International Airport (KSAN) |
Arrival
| Time | N/A |
|---|---|
| Airport | San Francisco Bay Oakland International Airport (KOAK) |
| Time | Latitude | Longitude | Altitude | Speed | Heading |
|---|---|---|---|---|---|
| 2026-04-21 03:20 | 32.73372 | -117.19779 | 24 ft | 0 kts | 268° |
| 2026-04-21 03:37 | 32.73373 | -117.19770 | 24 ft | 2 kts | 246° |
| 2026-04-21 03:37 | 32.73381 | -117.19753 | 24 ft | 2 kts | 234° |
| 2026-04-21 03:37 | 32.73383 | -117.19735 | 26 ft | 2 kts | 290° |
| 2026-04-21 03:38 | 32.73372 | -117.19722 | 28 ft | 2 kts | 340° |
| 2026-04-21 03:38 | 32.73357 | -117.19715 | 25 ft | 2 kts | 353° |
| 2026-04-21 03:38 | 32.73341 | -117.19717 | 23 ft | 2 kts | 16° |
| 2026-04-21 03:38 | 32.73337 | -117.19718 | 23 ft | 0 kts | 18° |
| 2026-04-21 03:41 | 32.73341 | -117.19716 | 23 ft | 2 kts | 18° |
| 2026-04-21 03:41 | 32.73376 | -117.19704 | 24 ft | 8 kts | 15° |
| 2026-04-21 03:41 | 32.73414 | -117.19653 | 28 ft | 11 kts | 86° |
| 2026-04-21 03:41 | 32.73395 | -117.19549 | 27 ft | 15 kts | 105° |
| 2026-04-21 03:42 | 32.73358 | -117.19408 | 28 ft | 21 kts | 107° |
| 2026-04-21 03:42 | 32.73314 | -117.19220 | 24 ft | 26 kts | 105° |
| 2026-04-21 03:42 | 32.73262 | -117.19012 | 26 ft | 27 kts | 107° |
| 2026-04-21 03:42 | 32.73207 | -117.18782 | 26 ft | 30 kts | 105° |
| 2026-04-21 03:43 | 32.73146 | -117.18527 | 23 ft | 34 kts | 106° |
| 2026-04-21 03:43 | 32.73078 | -117.18248 | 22 ft | 36 kts | 106° |
| 2026-04-21 03:43 | 32.73017 | -117.17999 | 19 ft | 28 kts | 106° |
| 2026-04-21 03:43 | 32.72964 | -117.17780 | 17 ft | 27 kts | 105° |
| 2026-04-21 03:44 | 32.72952 | -117.17676 | 19 ft | 0 kts | 76° |
| 2026-04-21 03:44 | 32.72960 | -117.17641 | 21 ft | 8 kts | 75° |
| 2026-04-21 03:45 | 32.73012 | -117.17595 | 21 ft | 13 kts | 334° |
| 2026-04-21 03:45 | 32.73038 | -117.17659 | 20 ft | 23 kts | 286° |
| 2026-04-21 03:45 | 32.73160 | -117.18156 | 22 ft | 100 kts | 286° |
| 2026-04-21 03:45 | 32.73420 | -117.19215 | 31 ft | 162 kts | 287° |
| 2026-04-21 03:46 | 32.73738 | -117.20544 | 511 ft | 182 kts | 285° |
| 2026-04-21 03:46 | 32.74263 | -117.22062 | 887 ft | 213 kts | 304° |
| 2026-04-21 03:46 | 32.75176 | -117.23557 | 1441 ft | 234 kts | 305° |
| 2026-04-21 03:46 | 32.76142 | -117.25203 | 2071 ft | 251 kts | 304° |
| 2026-04-21 03:47 | 32.77152 | -117.26957 | 2756 ft | 259 kts | 304° |
| 2026-04-21 03:47 | 32.78175 | -117.28744 | 3370 ft | 263 kts | 304° |
| 2026-04-21 03:47 | 32.79200 | -117.30539 | 3978 ft | 263 kts | 303° |
| 2026-04-21 03:47 | 32.80249 | -117.32337 | 4607 ft | 265 kts | 305° |
| 2026-04-21 03:48 | 32.81353 | -117.34068 | 5221 ft | 267 kts | 306° |
| 2026-04-21 03:48 | 32.82495 | -117.35820 | 5827 ft | 269 kts | 306° |
| 2026-04-21 03:48 | 32.83648 | -117.37586 | 6440 ft | 272 kts | 306° |
| 2026-04-21 03:48 | 32.84809 | -117.39372 | 7019 ft | 274 kts | 306° |
| 2026-04-21 03:49 | 32.85981 | -117.41181 | 7605 ft | 278 kts | 305° |
| 2026-04-21 03:49 | 32.87165 | -117.43015 | 8200 ft | 281 kts | 305° |
| 2026-04-21 03:49 | 32.88361 | -117.44870 | 8817 ft | 284 kts | 305° |
| 2026-04-21 03:49 | 32.89568 | -117.46743 | 9446 ft | 287 kts | 305° |
| 2026-04-21 03:50 | 32.90787 | -117.48637 | 10073 ft | 289 kts | 304° |
| 2026-04-21 03:50 | 32.92016 | -117.50549 | 10655 ft | 291 kts | 304° |
| 2026-04-21 03:50 | 32.92848 | -117.51843 | 11060 ft | 292 kts | 304° |
| 2026-04-21 03:50 | 32.94071 | -117.53747 | 11653 ft | 293 kts | 304° |
| 2026-04-21 03:51 | 32.95326 | -117.55702 | 12275 ft | 294 kts | 304° |
| 2026-04-21 03:51 | 32.96550 | -117.57611 | 12884 ft | 294 kts | 303° |
| 2026-04-21 03:51 | 32.97794 | -117.59551 | 13514 ft | 295 kts | 303° |
| 2026-04-21 03:51 | 32.99038 | -117.61494 | 14108 ft | 295 kts | 303° |
| 2026-04-21 03:52 | 33.00290 | -117.63449 | 14513 ft | 303 kts | 303° |
| 2026-04-21 03:52 | 33.01607 | -117.65514 | 14621 ft | 322 kts | 303° |
| 2026-04-21 03:52 | 33.02998 | -117.67693 | 14756 ft | 339 kts | 303° |
| 2026-04-21 03:52 | 33.04463 | -117.69985 | 14897 ft | 355 kts | 303° |
| 2026-04-21 03:53 | 33.05993 | -117.72378 | 14991 ft | 372 kts | 304° |
| 2026-04-21 03:53 | 33.07801 | -117.74651 | 14995 ft | 382 kts | 315° |
| 2026-04-21 03:53 | 33.09855 | -117.76686 | 14999 ft | 384 kts | 317° |
| 2026-04-21 03:53 | 33.11927 | -117.78688 | 14992 ft | 383 kts | 317° |
| 2026-04-21 03:54 | 33.13982 | -117.80706 | 14992 ft | 382 kts | 316° |
| 2026-04-21 03:54 | 33.16017 | -117.82750 | 14991 ft | 382 kts | 316° |
| 2026-04-21 03:54 | 33.18036 | -117.84804 | 15200 ft | 378 kts | 316° |
| 2026-04-21 03:54 | 33.20030 | -117.86832 | 15759 ft | 379 kts | 316° |
| 2026-04-21 03:55 | 33.22071 | -117.88850 | 16293 ft | 381 kts | 316° |
| 2026-04-21 03:55 | 33.24131 | -117.90854 | 16838 ft | 382 kts | 317° |
| 2026-04-21 03:55 | 33.26199 | -117.92859 | 17390 ft | 384 kts | 316° |
| 2026-04-21 03:55 | 33.28245 | -117.94843 | 17946 ft | 384 kts | 316° |
| 2026-04-21 03:56 | 33.30322 | -117.96863 | 18499 ft | 384 kts | 316° |
| 2026-04-21 03:56 | 33.32396 | -117.98886 | 18996 ft | 384 kts | 316° |
| 2026-04-21 03:56 | 33.34464 | -118.00906 | 19500 ft | 384 kts | 316° |
| 2026-04-21 03:56 | 33.36554 | -118.02952 | 19755 ft | 394 kts | 316° |
| 2026-04-21 03:57 | 33.38714 | -118.05073 | 19846 ft | 408 kts | 316° |
| 2026-04-21 03:57 | 33.40937 | -118.07255 | 19991 ft | 418 kts | 316° |
| 2026-04-21 03:57 | 33.43208 | -118.09483 | 20347 ft | 422 kts | 316° |
| 2026-04-21 03:57 | 33.45483 | -118.11712 | 20817 ft | 423 kts | 317° |
| 2026-04-21 03:58 | 33.47761 | -118.13946 | 21262 ft | 424 kts | 317° |
| 2026-04-21 03:58 | 33.50027 | -118.16171 | 21658 ft | 427 kts | 317° |
| 2026-04-21 03:58 | 33.52329 | -118.18435 | 22040 ft | 429 kts | 317° |
| 2026-04-21 03:58 | 33.54648 | -118.20717 | 22435 ft | 432 kts | 317° |
| 2026-04-21 03:59 | 33.56978 | -118.23003 | 22820 ft | 434 kts | 318° |
| 2026-04-21 03:59 | 33.59569 | -118.24924 | 23145 ft | 443 kts | 332° |
| 2026-04-21 03:59 | 33.62383 | -118.26441 | 23548 ft | 445 kts | 333° |
| 2026-04-21 04:00 | 33.68093 | -118.29421 | 24182 ft | 448 kts | 333° |
| 2026-04-21 04:00 | 33.70939 | -118.30960 | 24522 ft | 449 kts | 332° |
| 2026-04-21 04:00 | 33.73744 | -118.32506 | 24868 ft | 450 kts | 332° |
| 2026-04-21 04:00 | 33.76587 | -118.34080 | 25197 ft | 451 kts | 332° |
| 2026-04-21 04:01 | 33.79473 | -118.35591 | 25503 ft | 453 kts | 333° |
| 2026-04-21 04:01 | 33.82387 | -118.37047 | 25700 ft | 458 kts | 334° |
| 2026-04-21 04:01 | 33.85353 | -118.38511 | 25914 ft | 461 kts | 334° |
| 2026-04-21 04:01 | 33.88308 | -118.39975 | 26384 ft | 458 kts | 334° |
| 2026-04-21 04:02 | 33.91246 | -118.41445 | 26763 ft | 458 kts | 333° |
| 2026-04-21 04:02 | 33.94188 | -118.42930 | 27046 ft | 459 kts | 333° |
| 2026-04-21 04:02 | 33.97142 | -118.44427 | 27297 ft | 461 kts | 333° |
| 2026-04-21 04:02 | 34.00108 | -118.45930 | 27561 ft | 463 kts | 333° |
| 2026-04-21 04:03 | 34.03077 | -118.47437 | 27832 ft | 464 kts | 333° |
| 2026-04-21 04:03 | 34.06054 | -118.48948 | 28121 ft | 465 kts | 333° |
| 2026-04-21 04:03 | 34.09040 | -118.50465 | 28409 ft | 466 kts | 333° |
| 2026-04-21 04:03 | 34.12031 | -118.51986 | 28652 ft | 467 kts | 333° |
| 2026-04-21 04:04 | 34.15030 | -118.53513 | 28894 ft | 469 kts | 333° |
| 2026-04-21 04:04 | 34.18041 | -118.55047 | 29147 ft | 470 kts | 333° |
| 2026-04-21 04:04 | 34.21055 | -118.56584 | 29395 ft | 471 kts | 333° |
| 2026-04-21 04:04 | 34.24077 | -118.58126 | 29620 ft | 472 kts | 333° |
| 2026-04-21 04:05 | 34.27107 | -118.59673 | 29895 ft | 473 kts | 333° |
| 2026-04-21 04:05 | 34.30131 | -118.61217 | 30251 ft | 470 kts | 333° |
| 2026-04-21 04:05 | 34.33141 | -118.62735 | 30563 ft | 469 kts | 333° |
| 2026-04-21 04:05 | 34.36180 | -118.64220 | 30740 ft | 471 kts | 334° |
| 2026-04-21 04:06 | 34.39228 | -118.65701 | 30882 ft | 473 kts | 333° |
| 2026-04-21 04:06 | 34.42279 | -118.67192 | 31097 ft | 473 kts | 333° |
| 2026-04-21 04:06 | 34.45244 | -118.68886 | 31344 ft | 469 kts | 327° |
| 2026-04-21 04:06 | 34.48075 | -118.70814 | 31563 ft | 467 kts | 324° |
| 2026-04-21 04:07 | 34.50821 | -118.72827 | 31748 ft | 467 kts | 323° |
| 2026-04-21 04:07 | 34.53589 | -118.74893 | 31965 ft | 467 kts | 323° |
| 2026-04-21 04:07 | 34.56361 | -118.76949 | 32210 ft | 467 kts | 323° |
| 2026-04-21 04:07 | 34.59146 | -118.78985 | 32397 ft | 468 kts | 324° |
| 2026-04-21 04:08 | 34.61948 | -118.81006 | 32553 ft | 469 kts | 324° |
| 2026-04-21 04:08 | 34.64760 | -118.83015 | 32792 ft | 468 kts | 324° |
| 2026-04-21 04:08 | 34.67571 | -118.85013 | 32980 ft | 468 kts | 324° |
| 2026-04-21 04:08 | 34.70394 | -118.87017 | 33106 ft | 470 kts | 324° |
| 2026-04-21 04:09 | 34.73213 | -118.89017 | 33354 ft | 468 kts | 324° |
| 2026-04-21 04:09 | 34.76021 | -118.91011 | 33584 ft | 467 kts | 324° |
| 2026-04-21 04:09 | 34.78832 | -118.93011 | 33770 ft | 468 kts | 324° |
| 2026-04-21 04:09 | 34.81646 | -118.95016 | 33932 ft | 467 kts | 324° |
| 2026-04-21 04:10 | 34.84440 | -118.97008 | 34002 ft | 465 kts | 324° |
| 2026-04-21 04:10 | 34.89992 | -119.00974 | 34010 ft | 466 kts | 324° |
| 2026-04-21 04:11 | 34.95602 | -119.04990 | 33986 ft | 468 kts | 324° |
| 2026-04-21 04:11 | 35.01217 | -119.09014 | 33966 ft | 468 kts | 324° |
| 2026-04-21 04:12 | 35.06865 | -119.13067 | 33953 ft | 468 kts | 324° |
| 2026-04-21 04:12 | 35.12434 | -119.17070 | 33939 ft | 467 kts | 324° |
| 2026-04-21 04:13 | 35.18020 | -119.21091 | 33927 ft | 465 kts | 324° |
| 2026-04-21 04:13 | 35.23575 | -119.25097 | 33924 ft | 462 kts | 324° |
| 2026-04-21 04:14 | 35.29094 | -119.29084 | 33926 ft | 460 kts | 324° |
| 2026-04-21 04:14 | 35.34585 | -119.33058 | 33924 ft | 457 kts | 324° |
| 2026-04-21 04:15 | 35.40050 | -119.37018 | 33925 ft | 455 kts | 324° |
| 2026-04-21 04:15 | 35.45489 | -119.40968 | 33932 ft | 453 kts | 324° |
| 2026-04-21 04:16 | 35.50909 | -119.44909 | 33932 ft | 452 kts | 324° |
| 2026-04-21 04:16 | 35.56278 | -119.48924 | 33928 ft | 449 kts | 318° |
| 2026-04-21 04:17 | 35.61087 | -119.53750 | 33938 ft | 445 kts | 314° |
| 2026-04-21 04:17 | 35.65814 | -119.58682 | 33943 ft | 446 kts | 314° |
| 2026-04-21 04:18 | 35.70581 | -119.63606 | 33944 ft | 448 kts | 315° |
| 2026-04-21 04:18 | 35.75342 | -119.68492 | 33950 ft | 449 kts | 315° |
| 2026-04-21 04:19 | 35.80149 | -119.73426 | 33948 ft | 450 kts | 315° |
| 2026-04-21 04:19 | 35.84963 | -119.78378 | 33942 ft | 451 kts | 314° |
| 2026-04-21 04:20 | 35.89779 | -119.83341 | 33954 ft | 452 kts | 314° |
| 2026-04-21 04:20 | 35.94396 | -119.88414 | 33932 ft | 430 kts | 310° |
| 2026-04-21 04:21 | 35.98615 | -119.93481 | 33947 ft | 419 kts | 309° |
| 2026-04-21 04:21 | 36.02769 | -119.98501 | 33957 ft | 417 kts | 309° |
| 2026-04-21 04:22 | 36.06903 | -120.03446 | 33953 ft | 415 kts | 309° |
| 2026-04-21 04:22 | 36.11064 | -120.08402 | 33954 ft | 414 kts | 309° |
| 2026-04-21 04:23 | 36.15212 | -120.13342 | 33952 ft | 414 kts | 309° |
| 2026-04-21 04:23 | 36.19341 | -120.18264 | 33966 ft | 410 kts | 309° |
| 2026-04-21 04:24 | 36.23439 | -120.23162 | 33538 ft | 411 kts | 309° |
| 2026-04-21 04:24 | 36.25479 | -120.25600 | 33061 ft | 405 kts | 309° |
| 2026-04-21 04:24 | 36.27500 | -120.28016 | 32432 ft | 402 kts | 309° |
| 2026-04-21 04:24 | 36.29507 | -120.30419 | 31799 ft | 400 kts | 308° |
| 2026-04-21 04:25 | 36.31499 | -120.32808 | 31232 ft | 397 kts | 308° |
| 2026-04-21 04:25 | 36.33473 | -120.35174 | 30748 ft | 391 kts | 308° |
| 2026-04-21 04:25 | 36.35413 | -120.37502 | 30289 ft | 387 kts | 308° |
| 2026-04-21 04:25 | 36.37339 | -120.39817 | 29732 ft | 383 kts | 308° |
| 2026-04-21 04:26 | 36.39221 | -120.42080 | 29168 ft | 380 kts | 308° |
| 2026-04-21 04:26 | 36.41104 | -120.44347 | 28624 ft | 376 kts | 308° |
| 2026-04-21 04:26 | 36.42975 | -120.46599 | 28119 ft | 371 kts | 308° |
| 2026-04-21 04:27 | 36.46685 | -120.51081 | 27995 ft | 375 kts | 308° |
| 2026-04-21 04:27 | 36.48569 | -120.53360 | 27917 ft | 381 kts | 308° |